createdAt,value
2022-10-19T00:01:16.964Z,22.37
2022-10-19T00:06:29.455Z,30.50
2022-10-19T00:09:06.911Z,33.40
2022-10-19T00:11:37.285Z,32.70
2022-10-19T00:14:05.660Z,29.07
2022-10-19T00:16:36.609Z,25.90
2022-10-19T00:19:07.155Z,29.97
2022-10-19T00:21:35.663Z,24.03
2022-10-19T00:24:03.158Z,25.03
2022-10-19T00:26:30.382Z,22.57
2022-10-19T00:29:00.444Z,21.33
2022-10-19T00:31:28.153Z,20.67
2022-10-19T00:33:57.434Z,20.53
2022-10-19T00:36:28.372Z,44.83
2022-10-19T00:38:56.782Z,28.33
2022-10-19T00:41:27.199Z,17.05
2022-10-19T00:43:59.683Z,25.93
2022-10-19T00:46:29.649Z,28.73
2022-10-19T00:49:22.279Z,24.80
2022-10-19T00:51:55.970Z,21.87
2022-10-19T00:54:25.582Z,23.53
2022-10-19T00:56:57.577Z,19.27
2022-10-19T00:59:27.248Z,30.07
2022-10-19T01:04:23.935Z,21.63
2022-10-19T01:06:52.630Z,27.70
2022-10-19T01:09:20.161Z,24.20
2022-10-19T01:12:13.389Z,27.43
2022-10-19T01:14:59.315Z,26.50
2022-10-19T01:17:33.009Z,27.43
2022-10-19T01:20:10.598Z,25.67
2022-10-19T01:23:00.177Z,24.30
2022-10-19T01:25:56.946Z,22.20
2022-10-19T01:28:58.257Z,20.93
2022-10-19T01:31:47.156Z,19.83
2022-10-19T01:34:29.597Z,22.55
2022-10-19T01:37:00.090Z,23.93
2022-10-19T01:39:36.502Z,23.43
2022-10-19T01:42:42.772Z,21.93
2022-10-19T01:45:31.542Z,23.50
2022-10-19T01:48:04.802Z,22.73
2022-10-19T01:50:41.242Z,23.37
2022-10-19T01:53:11.192Z,17.63
2022-10-19T01:55:43.336Z,20.27
2022-10-19T01:58:18.255Z,18.00
2022-10-19T02:00:48.809Z,20.23
2022-10-19T02:03:18.334Z,19.67
2022-10-19T02:08:22.544Z,15.93
2022-10-19T02:10:50.767Z,17.33
2022-10-19T02:13:20.845Z,19.13
2022-10-19T02:15:53.083Z,16.90
2022-10-19T02:18:28.614Z,18.67
2022-10-19T02:20:55.843Z,21.37
2022-10-19T02:23:27.039Z,20.50
2022-10-19T02:25:56.005Z,15.93
2022-10-19T02:28:26.518Z,18.33
2022-10-19T02:30:54.029Z,19.57
2022-10-19T02:33:21.382Z,19.00
2022-10-19T02:35:49.260Z,18.60
2022-10-19T02:38:20.552Z,19.60
2022-10-19T02:41:06.681Z,23.07
2022-10-19T02:43:37.739Z,28.57
2022-10-19T02:46:12.055Z,24.83
2022-10-19T02:48:41.417Z,20.07
2022-10-19T02:51:29.101Z,29.98
2022-10-19T02:53:58.988Z,27.90
2022-10-19T02:56:28.641Z,29.43
2022-10-19T02:58:56.320Z,21.83
2022-10-19T03:01:24.933Z,22.08
2022-10-19T03:03:52.121Z,21.77
2022-10-19T03:06:19.691Z,18.67
2022-10-19T03:08:47.291Z,19.93
2022-10-19T03:11:14.523Z,18.57
2022-10-19T03:13:42.523Z,16.40
2022-10-19T03:16:14.440Z,14.27
2022-10-19T03:18:42.905Z,17.70
2022-10-19T03:21:12.918Z,19.47
2022-10-19T03:23:40.834Z,22.10
2022-10-19T03:26:12.176Z,27.60
2022-10-19T03:28:40.534Z,24.77
2022-10-19T03:31:07.815Z,27.80
2022-10-19T03:33:35.145Z,39.27
2022-10-19T03:36:22.905Z,44.77
2022-10-19T03:38:54.722Z,30.27
2022-10-19T03:41:24.206Z,40.17
2022-10-19T03:43:52.118Z,46.05
2022-10-19T03:46:20.103Z,35.13
2022-10-19T03:48:48.275Z,32.73
2022-10-19T03:51:18.690Z,29.07
2022-10-19T03:53:47.120Z,26.60
2022-10-19T03:56:17.992Z,31.45
2022-10-19T03:58:47.382Z,29.03
2022-10-19T04:01:19.422Z,23.97
2022-10-19T04:03:47.055Z,22.40
2022-10-19T04:06:21.189Z,23.03
2022-10-19T04:08:50.217Z,31.60
2022-10-19T04:11:20.370Z,36.57
2022-10-19T04:13:52.400Z,42.20
2022-10-19T04:16:21.320Z,55.53
2022-10-19T04:18:48.660Z,67.18
2022-10-19T04:21:26.261Z,42.93
2022-10-19T04:23:58.178Z,52.93
2022-10-19T04:26:25.508Z,60.53
2022-10-19T04:28:53.042Z,65.43
2022-10-19T04:31:20.825Z,45.33
2022-10-19T04:33:48.139Z,39.27
2022-10-19T04:36:15.359Z,34.83
2022-10-19T04:38:43.030Z,41.60
2022-10-19T04:41:13.489Z,41.73
2022-10-19T04:43:40.705Z,39.27
2022-10-19T04:46:11.430Z,34.63
2022-10-19T04:48:40.210Z,32.43
2022-10-19T04:51:08.783Z,36.30
2022-10-19T04:53:37.862Z,30.43
2022-10-19T04:56:08.566Z,30.37
2022-10-19T04:58:37.181Z,34.33
2022-10-19T05:01:23.529Z,32.13
2022-10-19T05:03:59.993Z,38.10
2022-10-19T05:06:28.421Z,32.97
2022-10-19T05:08:56.679Z,39.53
2022-10-19T05:11:24.049Z,34.40
2022-10-19T05:13:52.104Z,37.03
2022-10-19T05:16:22.575Z,39.57
2022-10-19T05:18:51.748Z,29.10
2022-10-19T05:21:20.984Z,39.15
2022-10-19T05:23:52.462Z,67.20
2022-10-19T05:26:21.891Z,60.80
2022-10-19T05:28:51.770Z,61.70
2022-10-19T05:31:20.905Z,59.87
2022-10-19T05:33:48.315Z,83.82
2022-10-19T05:36:22.742Z,79.23
2022-10-19T05:38:50.657Z,76.23
2022-10-19T05:41:18.972Z,74.70
2022-10-19T05:43:47.054Z,59.87
2022-10-19T05:46:20.066Z,82.43
2022-10-19T05:48:47.932Z,62.63
2022-10-19T05:51:18.777Z,76.40
2022-10-19T05:53:46.584Z,69.47
2022-10-19T05:56:16.684Z,89.27
2022-10-19T05:58:44.945Z,120.10
2022-10-19T06:01:13.001Z,88.80
2022-10-19T06:03:40.983Z,92.75
2022-10-19T06:06:09.723Z,100.77
2022-10-19T06:08:38.834Z,93.57
2022-10-19T06:11:12.060Z,90.57
2022-10-19T06:13:41.328Z,81.73
2022-10-19T06:18:38.385Z,92.97
2022-10-19T06:21:09.205Z,106.20
2022-10-19T06:23:37.477Z,76.80
2022-10-19T06:26:07.477Z,115.27
2022-10-19T06:28:35.974Z,94.33
2022-10-19T06:31:07.060Z,58.97
2022-10-19T06:33:36.791Z,59.03
2022-10-19T06:36:16.317Z,61.37
2022-10-19T06:38:44.219Z,53.33
2022-10-19T06:41:12.171Z,49.97
2022-10-19T06:43:39.672Z,56.03
2022-10-19T06:46:08.926Z,46.87
2022-10-19T06:48:37.263Z,44.63
2022-10-19T06:51:07.690Z,38.67
2022-10-19T06:53:36.161Z,40.13
2022-10-19T06:56:06.619Z,33.85
2022-10-19T06:58:40.148Z,38.50
2022-10-19T07:01:08.818Z,41.30
2022-10-19T07:03:37.291Z,37.92
2022-10-19T07:06:08.362Z,34.72
2022-10-19T07:08:37.535Z,36.67
2022-10-19T07:11:11.242Z,40.45
2022-10-19T07:13:39.266Z,36.27
2022-10-19T07:16:16.112Z,37.57
2022-10-19T07:18:47.279Z,47.90
2022-10-19T07:21:16.556Z,41.60
2022-10-19T07:26:16.029Z,36.88
2022-10-19T07:28:46.505Z,47.17
2022-10-19T07:31:20.748Z,33.17
2022-10-19T07:33:52.883Z,31.17
2022-10-19T07:36:20.946Z,31.77
2022-10-19T07:38:48.192Z,25.87
2022-10-19T07:41:17.586Z,26.40
2022-10-19T07:43:46.550Z,26.60
2022-10-19T07:46:18.832Z,26.10
2022-10-19T07:48:48.064Z,30.37
2022-10-19T07:51:17.362Z,25.27
2022-10-19T07:53:45.090Z,25.67
2022-10-19T07:56:18.236Z,22.93
2022-10-19T07:58:46.127Z,28.77
2022-10-19T08:01:19.701Z,26.92
2022-10-19T08:06:37.563Z,22.33
2022-10-19T08:09:05.758Z,16.92
2022-10-19T08:11:35.009Z,18.47
2022-10-19T08:16:44.312Z,17.93
2022-10-19T08:19:14.860Z,16.83
2022-10-19T08:21:45.136Z,25.60
2022-10-19T08:24:15.498Z,28.57
2022-10-19T08:26:44.004Z,21.27
2022-10-19T08:29:16.985Z,23.60
2022-10-19T08:31:46.421Z,22.70
2022-10-19T08:34:14.862Z,85.47
2022-10-19T08:39:18.330Z,11.27
2022-10-19T08:41:58.038Z,9.67
2022-10-19T08:45:13.643Z,6.50
2022-10-19T08:47:43.694Z,10.43
2022-10-19T08:50:21.704Z,11.47
2022-10-19T08:53:17.227Z,10.10
2022-10-19T08:56:12.177Z,9.43
2022-10-19T08:58:52.321Z,12.10
2022-10-19T09:02:05.383Z,12.07
2022-10-19T09:04:40.331Z,12.13
2022-10-19T09:07:28.454Z,8.73
2022-10-19T09:10:01.369Z,9.20
2022-10-19T09:13:00.554Z,12.13
2022-10-19T09:18:02.470Z,11.70
2022-10-19T09:20:38.912Z,11.60
2022-10-19T09:23:26.651Z,11.23
2022-10-19T09:25:56.242Z,10.77
2022-10-19T09:28:39.940Z,23.53
2022-10-19T09:31:15.260Z,10.73
2022-10-19T09:33:48.373Z,12.10
2022-10-19T09:36:22.614Z,12.20
2022-10-19T09:38:55.291Z,15.30
2022-10-19T09:41:24.461Z,9.67
2022-10-19T09:43:56.185Z,13.60
2022-10-19T09:46:39.148Z,11.77
2022-10-19T09:49:06.553Z,19.70
2022-10-19T09:51:52.481Z,19.03
2022-10-19T09:54:34.587Z,14.20
2022-10-19T09:57:03.432Z,15.13
2022-10-19T09:59:35.144Z,17.42
2022-10-19T10:02:21.494Z,16.40
2022-10-19T10:05:02.763Z,15.60
2022-10-19T10:07:36.938Z,15.70
2022-10-19T10:10:30.497Z,12.17
2022-10-19T10:13:00.056Z,19.03
2022-10-19T10:15:35.747Z,12.80
2022-10-19T10:18:03.880Z,14.00
2022-10-19T10:20:32.873Z,9.68
2022-10-19T10:23:04.787Z,10.30
2022-10-19T10:25:36.861Z,10.48
2022-10-19T10:28:23.889Z,8.25
2022-10-19T10:31:09.453Z,7.30
2022-10-19T10:33:45.000Z,14.02
2022-10-19T10:36:13.524Z,7.45
2022-10-19T10:38:47.198Z,6.35
2022-10-19T10:41:18.027Z,9.65
2022-10-19T10:44:04.743Z,7.00
2022-10-19T10:46:43.147Z,11.55
2022-10-19T10:49:21.712Z,8.15
2022-10-19T10:51:54.459Z,10.55
2022-10-19T10:54:33.302Z,7.50
2022-10-19T10:57:18.647Z,10.25
2022-10-19T11:00:02.512Z,6.32
2022-10-19T11:02:51.866Z,6.18
2022-10-19T11:05:53.556Z,6.68
2022-10-19T11:08:27.686Z,7.30
2022-10-19T11:11:02.377Z,9.88
2022-10-19T11:13:44.306Z,8.88
2022-10-19T11:16:37.983Z,5.90
2022-10-19T11:19:19.557Z,8.18
2022-10-19T11:22:15.578Z,7.82
2022-10-19T11:24:55.343Z,6.93
2022-10-19T11:27:22.610Z,10.93
2022-10-19T11:29:53.166Z,8.57
2022-10-19T11:32:57.821Z,6.30
2022-10-19T11:35:25.406Z,5.32
2022-10-19T11:38:19.098Z,7.35
2022-10-19T11:41:20.048Z,9.13
2022-10-19T11:43:56.319Z,9.20
2022-10-19T11:46:38.095Z,6.97
2022-10-19T11:49:16.105Z,10.82
2022-10-19T11:51:58.062Z,9.52
2022-10-19T11:54:43.452Z,9.25
2022-10-19T11:57:20.807Z,6.93
2022-10-19T12:00:37.601Z,5.53
2022-10-19T12:03:20.980Z,5.30
2022-10-19T12:06:13.976Z,6.15
2022-10-19T12:09:06.486Z,4.75
2022-10-19T12:12:09.617Z,10.98
2022-10-19T12:14:41.800Z,6.55
2022-10-19T12:17:16.255Z,5.45
2022-10-19T12:19:55.206Z,10.18
2022-10-19T12:22:26.870Z,7.40
2022-10-19T12:24:58.450Z,13.80
2022-10-19T12:27:47.569Z,13.23
2022-10-19T12:30:19.280Z,4.68
2022-10-19T12:32:54.349Z,7.25
2022-10-19T12:35:25.586Z,8.27
2022-10-19T12:38:05.930Z,6.87
2022-10-19T12:40:40.210Z,5.90
2022-10-19T12:43:27.076Z,5.43
2022-10-19T12:46:13.260Z,8.80
2022-10-19T12:48:40.768Z,7.50
2022-10-19T12:51:12.244Z,6.78
2022-10-19T12:53:49.169Z,6.50
2022-10-19T12:56:24.482Z,7.60
2022-10-19T12:58:59.910Z,6.03
2022-10-19T13:01:44.074Z,10.35
2022-10-19T13:04:15.414Z,5.32
2022-10-19T13:07:02.051Z,10.77
2022-10-19T13:09:39.150Z,11.00
2022-10-19T13:12:19.799Z,11.12
2022-10-19T13:14:57.260Z,7.68
2022-10-19T13:17:34.316Z,6.50
2022-10-19T13:20:14.242Z,24.12
2022-10-19T13:22:49.006Z,11.90
2022-10-19T13:25:30.769Z,6.57
2022-10-19T13:28:07.546Z,5.93
2022-10-19T13:30:46.651Z,6.37
2022-10-19T13:33:28.590Z,7.90
2022-10-19T13:35:58.885Z,8.82
2022-10-19T13:38:32.690Z,7.80
2022-10-19T13:41:04.012Z,7.65
2022-10-19T13:43:50.346Z,12.02
2022-10-19T13:46:29.664Z,6.82
2022-10-19T13:49:22.634Z,17.55
2022-10-19T13:52:04.867Z,6.93
2022-10-19T13:55:09.603Z,9.02
2022-10-19T13:57:56.982Z,14.35
2022-10-19T14:00:30.708Z,9.82
2022-10-19T14:03:20.679Z,14.10
2022-10-19T14:06:18.891Z,16.70
2022-10-19T14:08:49.413Z,15.18
2022-10-19T14:11:39.874Z,16.77
2022-10-19T14:14:20.512Z,13.25
2022-10-19T14:16:52.299Z,27.90
2022-10-19T14:19:27.325Z,11.02
2022-10-19T14:22:00.004Z,13.07
2022-10-19T14:24:29.438Z,15.02
2022-10-19T14:26:59.974Z,31.92
2022-10-19T14:29:27.840Z,24.55
2022-10-19T14:31:55.193Z,23.17
2022-10-19T14:34:22.778Z,19.98
2022-10-19T14:36:51.527Z,19.52
2022-10-19T14:39:30.186Z,33.63
2022-10-19T14:42:04.329Z,39.45
2022-10-19T14:44:40.283Z,41.92
2022-10-19T14:47:27.339Z,50.38
2022-10-19T14:49:54.665Z,74.37
2022-10-19T14:52:38.141Z,64.35
2022-10-19T14:55:18.282Z,43.40
2022-10-19T14:57:49.757Z,41.22
2022-10-19T15:00:22.917Z,47.40
2022-10-19T15:03:12.694Z,44.30
2022-10-19T15:05:47.011Z,36.78
2022-10-19T15:08:27.080Z,30.00
2022-10-19T15:10:54.371Z,28.23
2022-10-19T15:13:27.043Z,23.35
2022-10-19T15:15:55.131Z,19.85
2022-10-19T15:18:44.361Z,16.42
2022-10-19T15:21:18.727Z,23.75
2022-10-19T15:23:52.169Z,28.75
2022-10-19T15:26:28.803Z,21.87
2022-10-19T15:29:09.625Z,24.70
2022-10-19T15:31:37.127Z,19.77
2022-10-19T15:34:05.611Z,12.20
2022-10-19T15:36:32.976Z,8.43
2022-10-19T15:39:17.581Z,14.00
2022-10-19T15:41:50.846Z,15.85
2022-10-19T15:44:41.112Z,17.00
2022-10-19T15:47:15.230Z,24.27
2022-10-19T15:49:42.619Z,16.47
2022-10-19T15:52:18.738Z,16.77
2022-10-19T15:54:49.819Z,12.53
2022-10-19T15:57:28.547Z,18.33
2022-10-19T15:59:57.974Z,17.77
2022-10-19T16:02:26.416Z,13.33
2022-10-19T16:04:54.937Z,20.20
2022-10-19T16:07:33.079Z,16.67
2022-10-19T16:10:01.571Z,23.20
2022-10-19T16:12:29.360Z,15.80
2022-10-19T16:14:57.050Z,16.87
2022-10-19T16:17:24.806Z,13.67
2022-10-19T16:19:52.030Z,10.00
2022-10-19T16:22:19.642Z,13.17
2022-10-19T16:24:47.183Z,14.70
2022-10-19T16:27:16.382Z,10.87
2022-10-19T16:29:44.714Z,21.23
2022-10-19T16:32:12.219Z,12.93
2022-10-19T16:34:39.600Z,15.43
2022-10-19T16:37:07.442Z,12.90
2022-10-19T16:39:35.310Z,10.07
2022-10-19T16:42:02.499Z,14.47
2022-10-19T16:44:29.748Z,10.47
2022-10-19T16:46:57.641Z,10.43
2022-10-19T16:49:25.476Z,13.37
2022-10-19T16:51:56.271Z,10.63
2022-10-19T16:54:27.138Z,9.40
2022-10-19T16:59:23.081Z,10.38
2022-10-19T17:01:50.848Z,13.57
2022-10-19T17:04:20.848Z,16.57
2022-10-19T17:06:48.044Z,13.47
2022-10-19T17:09:44.941Z,14.73
2022-10-19T17:12:03.173Z,16.57
2022-10-19T17:14:30.627Z,15.00
2022-10-19T17:16:57.844Z,33.27
2022-10-19T17:19:25.765Z,60.87
2022-10-19T17:21:55.470Z,34.92
2022-10-19T17:24:26.688Z,22.87
2022-10-19T17:26:54.456Z,18.37
2022-10-19T17:29:22.969Z,14.53
2022-10-19T17:31:50.562Z,14.50
2022-10-19T17:34:18.838Z,13.53
2022-10-19T17:36:47.240Z,13.97
2022-10-19T17:39:18.967Z,24.67
2022-10-19T17:41:48.196Z,20.80
2022-10-19T17:44:17.092Z,17.90
2022-10-19T17:46:44.581Z,17.40
2022-10-19T17:49:12.905Z,14.23
2022-10-19T17:51:40.772Z,15.43
2022-10-19T17:54:11.146Z,13.50
2022-10-19T17:56:40.425Z,20.40
2022-10-19T17:59:09.258Z,16.25
2022-10-19T18:01:38.031Z,20.88
2022-10-19T18:06:36.021Z,19.87
2022-10-19T18:09:06.832Z,14.37
2022-10-19T18:11:42.360Z,16.27
2022-10-19T18:14:11.207Z,19.07
2022-10-19T18:19:14.201Z,15.63
2022-10-19T18:21:44.489Z,17.73
2022-10-19T18:24:20.042Z,19.40
2022-10-19T18:26:51.335Z,17.23
2022-10-19T18:29:21.276Z,18.97
2022-10-19T18:31:51.696Z,19.70
2022-10-19T18:34:22.569Z,25.73
2022-10-19T18:36:51.047Z,14.10
2022-10-19T18:39:18.901Z,15.97
2022-10-19T18:41:46.247Z,15.17
2022-10-19T18:44:14.248Z,16.43
2022-10-19T18:46:41.567Z,13.77
2022-10-19T18:49:10.642Z,17.23
2022-10-19T18:51:38.466Z,17.70
2022-10-19T18:54:05.982Z,15.30
2022-10-19T18:56:36.696Z,16.50
2022-10-19T18:59:05.397Z,21.37
2022-10-19T19:01:33.318Z,14.18
2022-10-19T19:04:07.058Z,21.53
2022-10-19T19:06:36.289Z,19.07
2022-10-19T19:09:07.567Z,20.30
2022-10-19T19:11:38.339Z,13.77
2022-10-19T19:14:12.220Z,18.30
2022-10-19T19:16:41.374Z,15.03
2022-10-19T19:19:10.259Z,18.45
2022-10-19T19:21:38.443Z,16.70
2022-10-19T19:24:06.880Z,18.60
2022-10-19T19:26:38.183Z,15.13
2022-10-19T19:29:06.063Z,15.27
2022-10-19T19:31:34.236Z,16.67
2022-10-19T19:34:02.539Z,19.03
2022-10-19T19:36:30.187Z,15.82
2022-10-19T19:38:59.247Z,16.87
2022-10-19T19:41:26.567Z,25.35
2022-10-19T19:43:57.647Z,18.27
2022-10-19T19:46:24.917Z,15.30
2022-10-19T19:49:02.122Z,20.57
2022-10-19T19:51:31.624Z,16.17
2022-10-19T19:53:58.983Z,14.27
2022-10-19T19:56:26.376Z,14.47
2022-10-19T19:58:58.994Z,17.67
2022-10-19T20:01:26.814Z,23.17
2022-10-19T20:03:55.040Z,18.33
2022-10-19T20:06:25.209Z,18.17
2022-10-19T20:08:54.884Z,15.33
2022-10-19T20:13:50.250Z,20.33
2022-10-19T20:16:28.339Z,20.60
2022-10-19T20:19:02.158Z,17.30
2022-10-19T20:21:31.722Z,20.63
2022-10-19T20:24:00.145Z,17.20
2022-10-19T20:26:28.599Z,17.63
2022-10-19T20:28:56.592Z,17.55
2022-10-19T20:31:24.910Z,18.08
2022-10-19T20:33:52.266Z,22.13
2022-10-19T20:36:25.379Z,19.07
2022-10-19T20:38:55.813Z,20.10
2022-10-19T20:41:24.915Z,22.13
2022-10-19T20:43:53.877Z,17.67
2022-10-19T20:46:24.035Z,23.15
2022-10-19T20:48:52.378Z,25.23
2022-10-19T20:51:30.676Z,20.15
2022-10-19T20:54:01.996Z,23.87
2022-10-19T20:56:36.340Z,23.43
2022-10-19T20:59:11.022Z,18.73
2022-10-19T21:01:39.874Z,23.00
2022-10-19T21:04:09.887Z,23.70
2022-10-19T21:06:43.350Z,22.10
2022-10-19T21:09:13.051Z,20.70
2022-10-19T21:11:41.936Z,17.17
2022-10-19T21:16:39.998Z,26.37
2022-10-19T21:19:11.028Z,27.77
2022-10-19T21:21:45.057Z,22.03
2022-10-19T21:24:21.323Z,17.57
2022-10-19T21:26:48.861Z,22.70
2022-10-19T21:29:17.016Z,21.93
2022-10-19T21:31:48.779Z,23.83
2022-10-19T21:34:22.854Z,21.17
2022-10-19T21:36:50.986Z,29.80
2022-10-19T21:39:18.968Z,26.58
2022-10-19T21:41:47.119Z,23.30
2022-10-19T21:44:16.230Z,23.63
2022-10-19T21:46:46.903Z,23.13
2022-10-19T21:49:14.288Z,24.07
2022-10-19T21:51:47.483Z,25.67
2022-10-19T21:54:18.453Z,27.07
2022-10-19T21:56:46.653Z,24.77
2022-10-19T21:59:15.033Z,26.95
2022-10-19T22:01:43.291Z,25.65
2022-10-19T22:04:14.369Z,25.70
2022-10-19T22:06:42.391Z,26.93
2022-10-19T22:09:13.714Z,25.73
2022-10-19T22:11:42.211Z,27.43
2022-10-19T22:14:11.741Z,25.30
2022-10-19T22:16:40.063Z,31.87
2022-10-19T22:19:08.373Z,34.03
2022-10-19T22:21:35.957Z,31.23
2022-10-19T22:24:06.781Z,34.43
2022-10-19T22:26:37.599Z,29.97
2022-10-19T22:29:06.777Z,29.70
2022-10-19T22:34:06.176Z,31.73
2022-10-19T22:36:33.483Z,28.47
2022-10-19T22:39:00.714Z,28.63
2022-10-19T22:41:28.423Z,29.77
2022-10-19T22:43:55.589Z,27.07
2022-10-19T22:46:22.893Z,33.07
2022-10-19T22:48:50.442Z,33.23
2022-10-19T22:51:17.795Z,30.87
2022-10-19T22:53:45.030Z,37.13
2022-10-19T22:56:13.269Z,35.67
2022-10-19T22:58:40.716Z,29.87
2022-10-19T23:01:13.284Z,29.00
2022-10-19T23:03:41.575Z,30.50
2022-10-19T23:06:11.582Z,29.90
2022-10-19T23:08:39.449Z,28.23
2022-10-19T23:11:07.219Z,29.17
2022-10-19T23:13:34.515Z,30.03
2022-10-19T23:16:02.142Z,29.87
2022-10-19T23:18:37.872Z,30.00
2022-10-19T23:21:08.377Z,27.87
2022-10-19T23:23:37.057Z,25.93
2022-10-19T23:26:07.883Z,27.20
2022-10-19T23:28:37.234Z,29.00
2022-10-19T23:31:07.746Z,29.75
2022-10-19T23:33:36.086Z,31.23
2022-10-19T23:36:13.341Z,28.95
2022-10-19T23:38:41.739Z,30.80
2022-10-19T23:41:09.293Z,26.15
2022-10-19T23:46:09.488Z,33.63
2022-10-19T23:48:37.372Z,29.27
2022-10-19T23:51:13.378Z,30.63
2022-10-19T23:53:43.543Z,31.97
2022-10-19T23:56:16.998Z,35.37
2022-10-19T23:58:45.170Z,32.50
